LiveATC.Net - Listen to live air traffic control over the Internet!


ICAO: LHDC  IATA: DEB   Airport: Debrecen Airport
City: Debrecen
Country: Hungary   Continent: Europe
LHDC METAR Weather: LHDC 161645Z AUTO 28009KT 260V320 9999 FEW057 //////CB 23/12 Q1012
LHDC Flight Activity (FlightAware)

LHDC Info/Tower
Feed Status: UP   Listeners: 3
Listen in your browser - HTML5 player (in browser, HTML5)
Click here to listen with your own player (launches your MP3 player)
Archive Access: LHDC Info/Tower
FacilityFrequency
Debrecen Info/Tower125.900

NOTICE

Unauthorized use prohibited. See LiveATC.net Terms of Service


Airport/ARTCC Code
Frequency Search
(e.g., 124.400, 128.75)
Site-wide search
 


Browse Feeds
Top 50 Feeds
Coverage Map
Bad Weather Areas

LiveATC FAQ
Offer LiveATC feed
Contact LiveATC.net
Press Inquiries

LiveATC on iPhone
LiveATC on Android

Windows Phone
Windows 8/10

LiveATC Mobile
(Mobile browser)

ATC Audio Archives
Interesting Recordings

LiveATC Forums


Home Page
About LiveATC.net
Make a Donation
Terms of Use
Privacy Policy

Canadian Air Freqs

AIRMETs/SIGMETs

FAA Airport Status
Nat'l Airspace Status
Arrival Demand Charts


Server Software By:
Icecast.org
Liquidsoap